Time;durP1;ratioP1;P1;durP2;ratioP2;P2;SDS_P1;SDS_P2;PMS_P1;PMS_P2;Temp;Humidity;BMP_temperature;BMP_pressure;BME280_temperature;BME280_humidity;BME280_pressure;Samples;Min_cycle;Max_cycle;Signal;HPM_P1;HPM_P2
2023/02/16 00:01:57;;;;;;;2.35;1.67;;;;;;;-2.05;74.23;146822.91;5064796;28;20104;-65
2023/02/16 00:04:28;;;;;;;2.67;1.70;;;;;;;-2.15;74.66;146798.78;5064683;28;20040;-65
2023/02/16 00:06:55;;;;;;;3.50;2.00;;;;;;;-2.13;75.16;146802.59;5064829;28;20036;-65
2023/02/16 00:09:23;;;;;;;1.98;1.63;;;;;;;-2.03;75.17;146827.97;5064322;28;20037;-65
2023/02/16 00:14:36;;;;;;;2.72;1.42;;;;;;;-2.19;74.29;146788.63;5064448;28;20089;-66
2023/02/16 00:17:03;;;;;;;1.95;1.33;;;;;;;-2.17;75.04;146793.69;5064264;28;20282;-65
2023/02/16 00:19:30;;;;;;;2.72;1.30;;;;;;;-2.09;75.04;146814.00;5063715;28;20059;-66
2023/02/16 00:21:57;;;;;;;1.27;1.17;;;;;;;-2.12;74.72;146805.16;5058163;28;20092;-65
2023/02/16 00:24:27;;;;;;;1.95;1.05;;;;;;;-2.27;74.05;146768.31;5056814;28;20357;-64
2023/02/16 00:26:54;;;;;;;1.48;1.30;;;;;;;-2.23;74.65;146778.47;5064470;28;20033;-64
2023/02/16 00:29:33;;;;;;;1.50;1.10;;;;;;;-2.29;74.68;146764.53;5063990;28;20063;-65
2023/02/16 00:32:01;;;;;;;1.40;1.30;;;;;;;-2.24;74.50;146774.69;5064210;28;20091;-65
2023/02/16 00:34:28;;;;;;;1.80;1.70;;;;;;;-2.19;74.72;146787.38;5063004;28;20024;-64
2023/02/16 00:36:55;;;;;;;2.88;1.58;;;;;;;-2.19;75.46;146787.38;5064180;28;20029;-65
2023/02/16 00:39:23;;;;;;;1.70;1.20;;;;;;;-2.35;75.41;146749.31;5062801;28;20232;-65
2023/02/16 00:41:50;;;;;;;1.35;1.20;;;;;;;-2.27;74.94;146769.63;5064082;28;20048;-64
2023/02/16 00:44:20;;;;;;;3.05;1.30;;;;;;;-2.28;74.78;146767.06;5063740;28;20493;-65
2023/02/16 00:46:46;;;;;;;2.45;1.20;;;;;;;-2.21;74.63;146782.28;5063420;28;20040;-65
2023/02/16 00:49:17;;;;;;;1.33;1.10;;;;;;;-2.40;74.87;146736.59;5063561;28;20040;-66
2023/02/16 00:51:43;;;;;;;2.60;0.95;;;;;;;-2.31;75.82;146759.47;5063726;28;20056;-65
2023/02/16 00:54:09;;;;;;;1.73;1.13;;;;;;;-2.43;74.88;146729.00;5063574;28;20229;-66
2023/02/16 00:56:35;;;;;;;2.17;1.13;;;;;;;-2.41;74.95;146732.81;5053010;28;20052;-67
2023/02/16 00:59:02;;;;;;;2.50;1.30;;;;;;;-2.31;75.22;146759.47;5058051;28;20028;-66
2023/02/16 01:01:32;;;;;;;1.73;1.02;;;;;;;-2.50;74.96;146711.25;5056866;28;20047;-66
2023/02/16 01:04:01;;;;;;;2.35;1.13;;;;;;;-2.53;75.39;146703.63;5049534;28;20098;-65
2023/02/16 01:12:13;;;;;;;1.73;1.15;;;;;;;-2.53;74.53;146703.63;5057943;28;20032;-66
2023/02/16 01:14:38;;;;;;;2.25;1.20;;;;;;;-2.34;75.55;146750.56;5062381;28;20266;-67
2023/02/16 01:17:04;;;;;;;1.20;0.90;;;;;;;-2.34;75.14;146751.81;5062098;28;20032;-67
2023/02/16 01:19:29;;;;;;;2.17;1.33;;;;;;;-2.46;74.99;146721.41;5063229;28;20024;-66
2023/02/16 01:21:55;;;;;;;1.95;1.08;;;;;;;-2.37;75.59;146742.97;5063271;28;20060;-65
2023/02/16 01:24:21;;;;;;;1.33;1.00;;;;;;;-2.35;75.53;146749.31;5062261;28;20028;-65
2023/02/16 01:26:48;;;;;;;2.17;1.15;;;;;;;-2.58;75.64;146690.94;5053571;28;20055;-66
2023/02/16 01:29:17;;;;;;;2.50;1.20;;;;;;;-2.41;75.76;146734.06;5044914;28;20021;-65
2023/02/16 01:31:43;;;;;;;1.33;1.08;;;;;;;-2.30;75.98;146760.72;5053223;28;20039;-65
2023/02/16 01:34:09;;;;;;;1.15;0.90;;;;;;;-2.33;76.08;146754.38;5049237;28;20084;-65
2023/02/16 01:36:44;;;;;;;3.95;1.17;;;;;;;-2.39;75.21;146739.16;5062356;28;20029;-66
2023/02/16 01:39:18;;;;;;;2.25;1.40;;;;;;;-2.28;75.06;146767.06;5062570;28;20092;-67
2023/02/16 01:42:16;;;;;;;3.95;1.20;;;;;;;-2.42;75.96;146731.56;5043131;28;20044;-67
2023/02/16 01:44:55;;;;;;;1.70;1.05;;;;;;;-2.29;75.18;146764.53;5061353;28;20163;-66
2023/02/16 01:47:29;;;;;;;1.20;1.10;;;;;;;-2.25;74.42;146773.44;5062737;28;20055;-65
2023/02/16 01:49:55;;;;;;;1.60;1.10;;;;;;;-2.23;75.63;146777.22;5061417;28;20029;-65
2023/02/16 01:52:36;;;;;;;1.42;1.25;;;;;;;-2.38;74.65;146741.72;5062520;28;20044;-65
2023/02/16 01:55:21;;;;;;;1.75;1.50;;;;;;;-2.51;76.03;146710.00;5062520;28;20033;-65
2023/02/16 01:57:50;;;;;;;1.42;1.10;;;;;;;-2.63;77.04;146680.78;5060674;28;20236;-65
2023/02/16 02:00:21;;;;;;;2.13;1.08;;;;;;;-2.60;77.15;146688.38;5045976;28;20021;-65
2023/02/16 02:05:33;;;;;;;2.58;1.20;;;;;;;-2.60;78.12;146687.13;5042543;28;20128;-65
2023/02/16 02:05:41;;;;;;;1.58;1.10;;;;;;;-2.53;78.93;146703.63;5062005;28;20048;-65
2023/02/16 02:08:20;;;;;;;3.05;1.30;;;;;;;-2.60;78.66;146688.38;5062251;28;20021;-65
2023/02/16 02:11:06;;;;;;;2.42;1.17;;;;;;;-2.49;79.52;146713.78;5058934;28;20297;-64
2023/02/16 02:13:49;;;;;;;1.83;1.10;;;;;;;-2.56;78.40;146697.28;5060205;28;20037;-65
2023/02/16 02:16:18;;;;;;;1.48;0.90;;;;;;;-2.58;78.36;146690.94;5049621;28;20066;-66
2023/02/16 02:18:44;;;;;;;1.73;1.05;;;;;;;-2.58;77.93;146692.19;5061399;28;20029;-66
2023/02/16 02:24:30;;;;;;;1.35;1.20;;;;;;;-2.64;79.12;146678.28;5060390;28;20047;-66
2023/02/16 02:27:18;;;;;;;1.48;1.13;;;;;;;-2.53;78.81;146704.91;5054741;28;20033;-67
2023/02/16 02:29:59;;;;;;;1.42;1.00;;;;;;;-2.46;78.32;146721.41;5058597;28;20052;-64
2023/02/16 02:32:57;;;;;;;1.88;1.20;;;;;;;-2.64;78.36;146678.28;5061795;28;20093;-65
2023/02/16 02:35:25;;;;;;;1.55;1.05;;;;;;;-2.67;77.77;146670.63;5061908;28;20036;-64
2023/02/16 02:38:04;;;;;;;1.20;1.00;;;;;;;-2.54;77.66;146702.34;5061974;28;20297;-64
2023/02/16 02:40:48;;;;;;;2.55;0.90;;;;;;;-2.49;78.26;146713.78;5061959;28;20321;-67
2023/02/16 02:43:13;;;;;;;1.08;0.90;;;;;;;-2.53;77.56;146703.63;5061985;28;20037;-64
2023/02/16 02:45:52;;;;;;;2.28;1.20;;;;;;;-2.54;77.77;146701.09;5062160;28;20068;-67
2023/02/16 02:48:18;;;;;;;1.70;1.10;;;;;;;-2.52;76.79;146706.13;5061566;28;20040;-66
2023/02/16 03:00:39;;;;;;;1.45;1.17;;;;;;;-2.54;77.14;146702.34;5061215;28;20043;-67
2023/02/16 03:02:12;;;;;;;1.83;1.20;;;;;;;-2.40;76.76;146735.34;5061716;28;20060;-66
2023/02/16 03:04:38;;;;;;;1.27;1.17;;;;;;;-2.41;77.38;146734.06;5061758;28;20025;-67
2023/02/16 03:07:05;;;;;;;2.55;1.40;;;;;;;-2.41;77.08;146734.06;5061485;28;20021;-66
2023/02/16 03:09:30;;;;;;;2.00;1.27;;;;;;;-2.55;76.69;146698.53;5064776;28;20039;-65
2023/02/16 03:14:49;;;;;;;1.85;1.23;;;;;;;-2.49;76.88;146713.78;5062383;28;20040;-66
2023/02/16 03:31:17;;;;;;;3.03;1.60;;;;;;;-2.54;76.51;146702.34;5065436;28;20029;-64
2023/02/16 03:33:44;;;;;;;1.90;1.40;;;;;;;-2.53;76.88;146703.63;5065369;28;20075;-65
2023/02/16 03:36:10;;;;;;;2.25;1.80;;;;;;;-2.37;76.30;146744.22;5065070;28;20048;-65
2023/02/16 03:38:38;;;;;;;1.50;1.23;;;;;;;-2.48;76.54;146717.59;5065116;28;20337;-66
2023/02/16 03:41:04;;;;;;;1.55;1.30;;;;;;;-2.90;76.85;146613.56;5064884;28;20330;-67
2023/02/16 03:43:30;;;;;;;1.95;1.30;;;;;;;-2.82;76.45;146633.88;5063926;28;20029;-65
2023/02/16 03:45:56;;;;;;;1.52;1.08;;;;;;;-3.01;76.46;146586.94;5065149;28;20063;-65
2023/02/16 03:48:21;;;;;;;2.78;1.10;;;;;;;-3.12;77.16;146560.31;5065046;28;20045;-66
2023/02/16 03:50:47;;;;;;;1.75;1.10;;;;;;;-3.13;77.04;146557.78;5064694;28;20100;-65
2023/02/16 03:53:12;;;;;;;1.60;1.33;;;;;;;-2.91;78.30;146609.78;5064938;28;20052;-65
2023/02/16 03:55:39;;;;;;;2.22;1.60;;;;;;;-3.08;77.11;146567.94;5064867;28;20123;-65
2023/02/16 03:58:07;;;;;;;1.35;1.30;;;;;;;-3.00;77.89;146589.47;5064436;28;20033;-64
2023/02/16 04:00:34;;;;;;;1.63;1.42;;;;;;;-3.00;77.33;146588.22;5064259;28;20025;-67
2023/02/16 04:03:00;;;;;;;1.75;1.40;;;;;;;-2.95;77.53;146602.19;5063624;28;20024;-66
2023/02/16 04:05:26;;;;;;;2.47;1.52;;;;;;;-3.02;77.45;146583.13;5064629;28;20033;-65
2023/02/16 04:07:51;;;;;;;2.95;1.70;;;;;;;-3.15;77.53;146551.44;5064638;28;20028;-65
2023/02/16 04:10:17;;;;;;;2.28;1.42;;;;;;;-3.22;77.50;146533.69;5064368;28;20025;-64
2023/02/16 04:12:43;;;;;;;1.55;1.30;;;;;;;-2.99;77.95;146592.03;5063065;28;20045;-65
2023/02/16 04:15:25;;;;;;;1.58;1.45;;;;;;;-3.26;77.41;146523.53;5064405;28;20021;-63
2023/02/16 04:17:51;;;;;;;2.05;1.63;;;;;;;-3.35;78.24;146502.00;5064161;28;20119;-65
2023/02/16 04:20:20;;;;;;;2.10;1.20;;;;;;;-3.34;78.06;146505.78;5062421;28;20112;-65
2023/02/16 04:22:46;;;;;;;2.20;1.65;;;;;;;-3.23;77.86;146532.44;5064051;28;20060;-65
2023/02/16 04:25:13;;;;;;;3.55;1.40;;;;;;;-3.35;78.31;146502.00;5064156;28;20092;-65
2023/02/16 04:27:39;;;;;;;1.48;1.33;;;;;;;-3.46;78.22;146475.41;5064117;28;20024;-65
2023/02/16 04:30:07;;;;;;;2.00;1.40;;;;;;;-3.21;78.37;146537.47;5063955;28;20028;-65
2023/02/16 04:32:32;;;;;;;2.67;1.77;;;;;;;-3.31;77.93;146512.13;5063479;28;20032;-66
2023/02/16 04:34:58;;;;;;;2.90;1.77;;;;;;;-3.39;77.59;146491.84;5063727;28;20028;-66
2023/02/16 04:37:24;;;;;;;2.53;1.60;;;;;;;-3.31;77.72;146512.13;5063773;28;20067;-65
2023/02/16 04:39:50;;;;;;;2.42;1.85;;;;;;;-3.31;78.14;146513.44;5063815;28;20045;-66
2023/02/16 04:42:15;;;;;;;2.92;1.50;;;;;;;-3.16;78.51;146550.19;5063466;28;20025;-65
2023/02/16 04:44:41;;;;;;;1.60;1.50;;;;;;;-3.18;77.83;146545.13;5062568;28;20056;-64
2023/02/16 04:47:07;;;;;;;2.78;1.77;;;;;;;-3.26;78.20;146524.84;5063280;28;20040;-64
2023/02/16 04:49:33;;;;;;;1.88;1.40;;;;;;;-3.14;78.53;146553.97;5062842;28;20321;-67
2023/02/16 04:51:59;;;;;;;1.60;1.50;;;;;;;-3.13;77.74;146557.78;5063256;28;20091;-65
2023/02/16 04:54:26;;;;;;;1.73;1.63;;;;;;;-3.14;77.66;146553.97;5063043;28;20029;-65
2023/02/16 04:56:52;;;;;;;2.92;1.75;;;;;;;-3.01;77.44;146585.69;5046542;28;20194;-65
2023/02/16 04:59:18;;;;;;;2.58;1.80;;;;;;;-2.93;76.62;146604.72;5062638;28;20037;-66
2023/02/16 05:01:43;;;;;;;3.22;1.85;;;;;;;-3.00;77.02;146589.47;5060954;28;20138;-65
2023/02/16 05:04:09;;;;;;;2.50;1.83;;;;;;;-3.09;76.99;146566.69;5060743;28;20032;-65
2023/02/16 05:06:37;;;;;;;3.33;2.35;;;;;;;-3.20;77.07;146540.03;5061007;28;20025;-65
2023/02/16 05:09:03;;;;;;;3.92;1.85;;;;;;;-2.93;77.50;146605.97;5060362;28;20032;-67
2023/02/16 05:14:41;;;;;;;2.22;2.00;;;;;;;-3.16;77.80;146550.19;5061206;28;20028;-65
2023/02/16 05:17:25;;;;;;;3.83;1.98;;;;;;;-3.30;78.09;146514.69;5058614;28;20220;-65
2023/02/16 05:19:56;;;;;;;2.95;2.15;;;;;;;-3.21;78.42;146537.47;5054051;28;20048;-65
2023/02/16 05:22:22;;;;;;;10.40;5.72;;;;;;;-3.06;78.16;146573.03;5062988;28;20043;-65
2023/02/16 05:24:48;;;;;;;2.75;1.73;;;;;;;-3.11;76.91;146561.56;5063094;28;20269;-65
2023/02/16 05:27:21;;;;;;;2.50;2.30;;;;;;;-3.30;77.10;146515.94;5062241;28;20052;-66
2023/02/16 05:29:47;;;;;;;5.68;2.25;;;;;;;-3.08;77.80;146569.19;5060175;28;20120;-65
2023/02/16 05:32:12;;;;;;;2.80;2.10;;;;;;;-3.21;77.10;146536.22;5061740;28;20024;-65
2023/02/16 05:34:38;;;;;;;2.65;2.10;;;;;;;-3.24;77.66;146528.63;5062703;28;20372;-66
2023/02/16 05:37:05;;;;;;;3.28;1.65;;;;;;;-3.07;77.80;146571.72;5062723;28;20032;-64
2023/02/16 05:39:30;;;;;;;2.92;1.80;;;;;;;-3.25;77.92;146527.38;5062180;28;20028;-64
2023/02/16 05:41:56;;;;;;;3.90;2.10;;;;;;;-3.21;78.29;146536.22;5062393;28;20190;-64
2023/02/16 05:44:22;;;;;;;6.45;3.08;;;;;;;-3.14;77.70;146553.97;5056935;28;20044;-64
2023/02/16 05:46:47;;;;;;;2.00;1.63;;;;;;;-3.09;77.73;146566.69;5062332;28;20076;-64
2023/02/16 05:49:14;;;;;;;2.15;1.80;;;;;;;-3.10;77.52;146562.88;5060664;28;20036;-63
2023/02/16 05:51:40;;;;;;;2.78;1.98;;;;;;;-3.15;77.91;146552.72;5062207;28;20035;-65
2023/02/16 05:54:06;;;;;;;2.70;2.08;;;;;;;-3.02;78.14;146583.13;5055955;28;20025;-65
2023/02/16 05:56:32;;;;;;;3.63;2.35;;;;;;;-2.93;77.71;146604.72;5058396;28;20181;-64
2023/02/16 05:58:59;;;;;;;2.25;1.80;;;;;;;-3.10;77.40;146564.13;5062198;28;20282;-64
2023/02/16 06:01:26;;;;;;;3.97;2.05;;;;;;;-2.92;76.94;146608.53;5061369;28;20049;-63
2023/02/16 06:03:52;;;;;;;2.20;1.85;;;;;;;-2.91;76.67;146609.78;5059583;28;20252;-65
2023/02/16 06:06:17;;;;;;;2.42;1.83;;;;;;;-2.88;76.76;146617.38;5062039;28;20039;-64
2023/02/16 06:08:43;;;;;;;1.95;1.60;;;;;;;-2.79;77.03;146640.22;5062046;28;20057;-65
2023/02/16 06:11:34;;;;;;;2.80;2.03;;;;;;;-2.82;75.98;146633.88;5055594;28;20076;-64
2023/02/16 06:13:58;;;;;;;3.53;2.15;;;;;;;-2.95;75.53;146602.19;5057107;28;20028;-63
2023/02/16 06:16:28;;;;;;;2.03;1.77;;;;;;;-2.97;76.88;146595.81;5060539;28;20131;-64
2023/02/16 06:18:54;;;;;;;2.22;1.77;;;;;;;-2.95;76.85;146602.19;5052554;28;20326;-64
2023/02/16 06:21:21;;;;;;;2.13;1.85;;;;;;;-2.77;76.33;146645.28;5047015;28;20071;-64
2023/02/16 06:23:47;;;;;;;2.72;2.13;;;;;;;-2.76;75.70;146647.81;5060607;28;20037;-63
2023/02/16 06:26:13;;;;;;;8.30;2.08;;;;;;;-2.89;75.91;146616.13;5061504;28;20040;-63
2023/02/16 06:28:39;;;;;;;3.55;2.00;;;;;;;-2.71;76.08;146660.47;5061160;28;20082;-64
2023/02/16 06:31:05;;;;;;;2.85;1.70;;;;;;;-2.91;74.88;146609.78;5056713;28;20096;-66
2023/02/16 06:33:30;;;;;;;2.17;1.85;;;;;;;-2.86;75.35;146623.72;5061593;28;20132;-64
2023/02/16 06:35:56;;;;;;;1.63;1.52;;;;;;;-2.94;75.20;146603.41;5061631;28;20056;-64
2023/02/16 06:38:22;;;;;;;3.67;2.00;;;;;;;-2.95;75.31;146602.19;5055316;28;20281;-64
2023/02/16 06:40:51;;;;;;;3.70;1.90;;;;;;;-3.08;75.73;146569.19;5040357;28;20074;-63
2023/02/16 06:43:16;;;;;;;1.88;1.42;;;;;;;-2.82;75.79;146633.88;5054396;28;20040;-63
2023/02/16 06:45:42;;;;;;;2.15;1.63;;;;;;;-2.75;75.73;146649.09;5060610;28;20049;-64
2023/02/16 06:48:07;;;;;;;1.92;1.70;;;;;;;-2.93;74.64;146604.72;5060208;28;20333;-64
2023/02/16 06:50:33;;;;;;;1.90;1.70;;;;;;;-2.98;75.19;146594.56;5061244;28;20194;-63
2023/02/16 06:52:58;;;;;;;2.97;2.00;;;;;;;-2.79;75.12;146640.22;5060546;28;20066;-63
2023/02/16 06:55:24;;;;;;;2.28;1.67;;;;;;;-2.78;74.99;146642.72;5061524;28;20024;-68
2023/02/16 06:57:49;;;;;;;1.98;1.75;;;;;;;-2.93;74.91;146604.72;5044102;28;20025;-66
2023/02/16 07:00:15;;;;;;;2.90;1.73;;;;;;;-2.91;75.20;146609.78;5061528;28;20043;-64
2023/02/16 07:02:42;;;;;;;2.55;1.48;;;;;;;-3.16;75.43;146550.19;5054134;28;20329;-66
2023/02/16 07:05:09;;;;;;;3.40;2.10;;;;;;;-2.87;74.84;146621.19;5040976;28;20093;-64
2023/02/16 07:07:34;;;;;;;1.80;1.65;;;;;;;-2.72;75.35;146657.97;5048868;28;20028;-64
2023/02/16 07:10:01;;;;;;;1.98;1.73;;;;;;;-2.61;74.00;146685.88;5043849;28;20329;-65
2023/02/16 07:12:27;;;;;;;1.88;1.60;;;;;;;-2.51;73.68;146708.69;5057788;28;20221;-65
2023/02/16 07:14:53;;;;;;;2.03;1.83;;;;;;;-2.43;73.44;146730.25;5060611;28;20036;-64
2023/02/16 07:17:19;;;;;;;3.03;2.03;;;;;;;-2.24;72.69;146775.94;5048901;28;20045;-66
2023/02/16 07:19:44;;;;;;;3.30;2.00;;;;;;;-2.40;72.65;146735.34;5042985;28;20229;-65
2023/02/16 07:22:10;;;;;;;3.33;1.92;;;;;;;-2.66;73.08;146673.19;5057740;28;20198;-65
2023/02/16 07:24:36;;;;;;;3.33;2.10;;;;;;;-2.38;72.25;146740.41;5040071;28;20021;-65
2023/02/16 07:27:03;;;;;;;3.20;2.47;;;;;;;-2.17;72.63;146792.44;5060651;28;20029;-65
2023/02/16 07:29:28;;;;;;;2.55;2.03;;;;;;;-2.17;72.55;146792.44;5061015;28;20043;-64
2023/02/16 07:31:55;;;;;;;3.38;2.00;;;;;;;-2.06;70.58;146820.34;5058627;28;20037;-65
2023/02/16 07:34:21;;;;;;;2.75;2.03;;;;;;;-2.21;70.85;146782.28;5056619;28;20128;-65
2023/02/16 07:36:46;;;;;;;2.47;1.90;;;;;;;-2.22;71.83;146781.03;5052252;28;20029;-64
2023/02/16 07:39:12;;;;;;;2.65;2.00;;;;;;;-2.48;72.14;146717.59;5059995;28;20272;-65
2023/02/16 07:41:37;;;;;;;1.90;1.70;;;;;;;-2.38;71.80;146740.41;5058588;28;20240;-64
2023/02/16 07:44:03;;;;;;;4.95;2.10;;;;;;;-2.47;71.68;146718.84;5058038;28;20075;-64
2023/02/16 07:46:28;;;;;;;3.08;2.20;;;;;;;-2.17;72.02;146792.44;5044155;28;20052;-65
2023/02/16 07:48:54;;;;;;;2.83;1.95;;;;;;;-2.08;71.30;146816.56;5042691;28;20045;-65
2023/02/16 07:51:28;;;;;;;2.05;1.80;;;;;;;-2.23;70.69;146777.22;5059723;28;20029;-66
2023/02/16 07:53:54;;;;;;;2.90;1.83;;;;;;;-2.35;71.52;146749.31;5052088;28;20036;-66
2023/02/16 07:56:28;;;;;;;2.05;1.67;;;;;;;-2.46;71.52;146722.66;5050292;28;20045;-65
2023/02/16 07:58:55;;;;;;;2.63;1.80;;;;;;;-2.49;71.87;146713.78;5058328;28;20241;-65
2023/02/16 08:01:22;;;;;;;2.13;1.90;;;;;;;-2.61;72.05;146685.88;5060476;28;20420;-65
2023/02/16 08:03:48;;;;;;;2.67;2.10;;;;;;;-2.44;71.63;146726.44;5051488;28;20041;-64
2023/02/16 08:06:14;;;;;;;4.40;2.42;;;;;;;-2.20;71.66;146784.81;5064328;28;20260;-66
2023/02/16 08:08:41;;;;;;;3.50;2.40;;;;;;;-2.03;71.15;146826.72;5060506;28;20029;-65
2023/02/16 08:11:09;;;;;;;4.25;2.20;;;;;;;-2.27;71.32;146769.63;5055632;28;20032;-65
2023/02/16 08:13:34;;;;;;;2.72;1.90;;;;;;;-2.45;70.22;146725.19;5064066;28;20214;-64
2023/02/16 08:16:00;;;;;;;3.50;2.20;;;;;;;-2.46;71.67;146721.41;5051904;28;20021;-64
2023/02/16 08:18:25;;;;;;;5.28;2.22;;;;;;;-2.37;71.04;146744.22;5047181;28;20317;-65
2023/02/16 08:20:51;;;;;;;3.08;2.30;;;;;;;-2.62;72.22;146683.34;5059369;28;20025;-65
2023/02/16 08:23:16;;;;;;;2.72;1.92;;;;;;;-2.45;71.79;146725.19;5048475;28;20040;-64
2023/02/16 08:25:42;;;;;;;2.92;2.17;;;;;;;-2.33;71.47;146753.13;5052029;28;20264;-65
2023/02/16 08:28:08;;;;;;;3.17;2.20;;;;;;;-2.27;71.18;146769.63;5060188;28;20044;-64
2023/02/16 08:30:34;;;;;;;2.78;2.30;;;;;;;-2.28;70.81;146765.78;5061748;28;20020;-64
2023/02/16 08:33:00;;;;;;;2.75;2.42;;;;;;;-2.18;71.30;146789.88;5062066;28;20020;-66
2023/02/16 08:35:29;;;;;;;2.40;2.03;;;;;;;-2.08;71.56;146816.56;5063328;28;20048;-65
2023/02/16 08:37:55;;;;;;;3.70;2.85;;;;;;;-2.12;70.71;146805.16;5059468;28;20025;-65
2023/02/16 08:40:23;;;;;;;2.85;2.05;;;;;;;-2.35;71.83;146749.31;5063266;28;20044;-65
2023/02/16 08:42:49;;;;;;;3.30;2.30;;;;;;;-2.29;70.58;146764.53;5060844;28;20088;-65
2023/02/16 08:45:15;;;;;;;3.20;2.28;;;;;;;-1.98;71.60;146840.69;5063393;28;20373;-64
2023/02/16 08:47:40;;;;;;;4.45;2.42;;;;;;;-1.95;69.84;146847.03;5063625;28;20328;-64
2023/02/16 08:50:06;;;;;;;2.95;2.20;;;;;;;-1.71;69.97;146906.69;5063014;28;20027;-64
2023/02/16 08:52:32;;;;;;;2.90;2.40;;;;;;;-1.58;69.35;146939.66;5062926;28;20070;-63
2023/02/16 08:54:57;;;;;;;3.35;3.03;;;;;;;-1.50;68.57;146957.44;5052089;28;20136;-65
2023/02/16 08:57:23;;;;;;;3.15;2.40;;;;;;;-1.46;68.46;146968.88;5063412;28;20473;-65
2023/02/16 09:00:32;;;;;;;2.67;2.35;;;;;;;-1.48;68.41;146962.50;5063223;28;20037;-65
2023/02/16 09:02:34;;;;;;;2.60;2.40;;;;;;;-2.08;69.37;146815.31;5063233;28;20074;-65
2023/02/16 09:04:59;;;;;;;2.20;2.00;;;;;;;-1.78;69.05;146888.88;5063257;28;20024;-63
2023/02/16 09:07:25;;;;;;;3.00;2.30;;;;;;;-1.67;68.53;146916.81;5056343;28;20025;-66
2023/02/16 09:09:51;;;;;;;5.22;2.30;;;;;;;-1.53;68.60;146949.84;5048886;28;20345;-66
2023/02/16 09:12:17;;;;;;;1.80;1.70;;;;;;;-1.51;67.56;146956.19;5062825;28;20056;-64
2023/02/16 09:14:43;;;;;;;2.75;2.38;;;;;;;-1.57;67.81;146942.22;5062513;28;20028;-65
2023/02/16 09:17:08;;;;;;;2.35;1.98;;;;;;;-1.59;67.03;146937.13;5062114;28;20021;-64
2023/02/16 09:19:34;;;;;;;2.58;2.20;;;;;;;-1.60;67.45;146934.56;5062390;28;20088;-65
2023/02/16 09:21:59;;;;;;;3.15;2.20;;;;;;;-1.56;67.17;146944.72;5063296;28;20241;-65
2023/02/16 09:24:25;;;;;;;3.40;2.20;;;;;;;-1.63;66.96;146925.72;5060300;28;20032;-64
2023/02/16 09:26:51;;;;;;;2.85;2.10;;;;;;;-1.85;66.08;146872.41;5060372;28;20266;-64
2023/02/16 09:29:17;;;;;;;3.13;2.10;;;;;;;-1.74;66.28;146899.03;5063240;28;20071;-64
2023/02/16 09:31:44;;;;;;;2.55;2.10;;;;;;;-1.94;67.04;146850.84;5062110;28;20580;-64
2023/02/16 09:34:21;;;;;;;2.75;2.25;;;;;;;-1.71;67.97;146906.69;5062318;28;20201;-65
2023/02/16 09:36:48;;;;;;;2.83;2.08;;;;;;;-1.80;66.08;146885.06;5047719;28;20092;-64
2023/02/16 09:39:15;;;;;;;3.13;2.40;;;;;;;-1.80;65.65;146883.81;5061962;28;20032;-64
2023/02/16 09:42:02;;;;;;;4.07;2.13;;;;;;;-1.85;67.35;146871.09;5062803;28;20029;-64
2023/02/16 09:44:47;;;;;;;4.10;2.70;;;;;;;-2.16;66.96;146795.00;5060669;28;20252;-64
2023/02/16 09:47:24;;;;;;;1.70;1.60;;;;;;;-2.57;67.05;146694.75;5061834;28;20086;-65
2023/02/16 09:49:51;;;;;;;3.33;2.13;;;;;;;-2.35;67.27;146749.31;5062377;28;20043;-64
2023/02/16 09:52:29;;;;;;;2.95;2.47;;;;;;;-2.61;68.18;146685.88;5061441;28;20364;-64
2023/02/16 09:54:58;;;;;;;2.92;2.20;;;;;;;-2.04;68.11;146824.16;5059584;28;20032;-64
2023/02/16 09:57:54;;;;;;;4.68;2.53;;;;;;;-2.14;67.61;146800.03;5060305;28;20041;-64
2023/02/16 10:00:39;;;;;;;4.35;2.33;;;;;;;-2.33;66.63;146754.38;5059805;28;20059;-65
2023/02/16 10:03:36;;;;;;;2.97;2.42;;;;;;;-1.93;67.29;146853.34;5059515;28;20264;-65
2023/02/16 10:06:29;;;;;;;2.67;2.25;;;;;;;-1.93;66.43;146853.34;5055556;28;20191;-64
2023/02/16 10:09:06;;;;;;;3.03;2.38;;;;;;;-2.14;66.16;146801.34;5060024;28;20036;-64
2023/02/16 10:11:47;;;;;;;2.90;2.35;;;;;;;-2.12;66.33;146806.41;5057547;28;20274;-64
2023/02/16 10:14:40;;;;;;;3.20;2.47;;;;;;;-1.97;67.63;146841.94;5056624;28;20037;-64
2023/02/16 10:17:15;;;;;;;2.95;2.58;;;;;;;-1.94;66.46;146850.84;5058443;28;20103;-63
2023/02/16 10:20:08;;;;;;;3.40;2.47;;;;;;;-1.70;67.89;146907.94;5061199;28;20017;-64
2023/02/16 10:22:37;;;;;;;3.17;2.40;;;;;;;-1.82;65.98;146880.00;5061035;28;20219;-63
2023/02/16 10:25:44;;;;;;;4.78;2.72;;;;;;;-1.70;65.83;146909.19;5060453;28;20039;-65
2023/02/16 10:28:17;;;;;;;2.20;2.00;;;;;;;-1.66;63.92;146918.09;5053290;28;20091;-65
2023/02/16 10:30:49;;;;;;;3.05;2.60;;;;;;;-1.68;63.89;146914.28;5046401;28;20055;-63
2023/02/16 10:33:32;;;;;;;3.08;2.40;;;;;;;-1.66;62.92;146919.34;5060851;28;20292;-64
2023/02/16 10:36:02;;;;;;;2.42;2.00;;;;;;;-2.28;63.62;146767.06;5061310;28;20025;-65
2023/02/16 10:38:46;;;;;;;2.78;2.22;;;;;;;-2.38;62.88;146740.41;5058863;28;20119;-64
2023/02/16 10:41:35;;;;;;;3.40;2.45;;;;;;;-2.18;63.08;146791.19;5051675;28;20037;-63
2023/02/16 10:44:36;;;;;;;2.42;2.05;;;;;;;-2.22;62.70;146781.03;5060698;28;20040;-65
2023/02/16 10:47:05;;;;;;;2.50;2.25;;;;;;;-1.99;60.86;146838.13;5061319;28;20032;-65
2023/02/16 10:49:34;;;;;;;2.00;1.90;;;;;;;-2.38;60.47;146741.72;5061616;28;20025;-64
2023/02/16 10:52:02;;;;;;;2.60;2.28;;;;;;;-2.46;62.15;146721.41;5061626;28;20093;-65
2023/02/16 10:54:30;;;;;;;2.67;2.03;;;;;;;-2.35;61.22;146749.31;5061662;28;20025;-63
2023/02/16 10:56:59;;;;;;;2.95;2.65;;;;;;;-1.92;62.04;146854.63;5060735;28;20084;-65
2023/02/16 10:59:42;;;;;;;3.20;2.53;;;;;;;-2.05;62.43;146821.59;5061762;28;20017;-64
2023/02/16 11:02:36;;;;;;;3.10;2.10;;;;;;;-2.17;60.85;146792.44;5061358;28;20036;-64
2023/02/16 11:05:25;;;;;;;2.97;2.40;;;;;;;-2.16;61.38;146795.00;5060142;28;20188;-64
2023/02/16 11:07:56;;;;;;;2.75;2.42;;;;;;;-1.89;61.53;146861.00;5061417;28;20041;-64
2023/02/16 11:10:41;;;;;;;4.32;2.20;;;;;;;-1.94;60.24;146850.84;5061447;28;20344;-64
2023/02/16 11:13:16;;;;;;;2.92;2.15;;;;;;;-2.21;60.60;146782.28;5060850;28;20096;-64
2023/02/16 11:15:42;;;;;;;3.05;1.85;;;;;;;-2.48;60.14;146717.59;5055697;28;20021;-65
2023/02/16 11:18:30;;;;;;;2.92;1.77;;;;;;;-2.68;61.35;146666.84;5059505;28;20052;-64
2023/02/16 11:20:57;;;;;;;2.83;2.15;;;;;;;-2.24;61.91;146775.94;5059478;28;20100;-65
2023/02/16 11:23:42;;;;;;;2.65;2.20;;;;;;;-2.17;59.90;146793.69;5060587;28;20036;-66
2023/02/16 11:26:13;;;;;;;2.42;2.22;;;;;;;-2.02;61.24;146829.22;5051014;28;20310;-64
2023/02/16 11:28:41;;;;;;;2.00;1.85;;;;;;;-1.86;61.26;146868.59;5052477;28;20033;-65
2023/02/16 11:31:18;;;;;;;3.25;2.58;;;;;;;-1.81;59.76;146881.25;5052951;28;20032;-65
2023/02/16 11:34:25;;;;;;;3.53;2.22;;;;;;;-1.68;60.59;146914.28;5046724;28;20029;-64
2023/02/16 11:36:59;;;;;;;4.47;2.78;;;;;;;-1.62;60.85;146928.25;5040570;28;20112;-64
2023/02/16 11:39:29;;;;;;;3.60;2.92;;;;;;;-1.57;60.98;146942.22;5044777;28;20032;-65
2023/02/16 11:42:09;;;;;;;2.50;2.15;;;;;;;-1.54;59.14;146947.28;5053244;28;20088;-63
2023/02/16 11:44:47;;;;;;;2.33;2.13;;;;;;;-1.49;60.75;146960.00;5045460;28;20049;-64
2023/02/16 11:47:34;;;;;;;2.55;2.35;;;;;;;-1.59;60.06;146935.88;5054110;28;20029;-65
2023/02/16 11:50:20;;;;;;;3.22;2.75;;;;;;;-1.61;59.98;146932.06;5063735;28;20040;-64
2023/02/16 11:52:51;;;;;;;3.35;2.70;;;;;;;-1.83;58.62;146876.19;5063977;28;20310;-64
2023/02/16 11:55:34;;;;;;;3.65;2.40;;;;;;;-2.04;59.21;146825.41;5064663;28;20029;-64
2023/02/16 11:58:21;;;;;;;3.67;2.38;;;;;;;-1.88;60.04;146863.50;5064636;28;20051;-65
2023/02/16 12:00:58;;;;;;;2.50;2.22;;;;;;;-1.94;58.06;146849.53;5064646;28;20044;-66
2023/02/16 12:04:11;;;;;;;4.00;2.45;;;;;;;-2.09;59.28;146812.75;5063418;28;20040;-64
2023/02/16 12:07:15;;;;;;;2.58;2.28;;;;;;;-2.22;58.17;146779.72;5055861;28;20114;-64
2023/02/16 12:10:07;;;;;;;2.72;2.53;;;;;;;-1.98;58.83;146840.69;5053242;28;20051;-64
2023/02/16 12:12:51;;;;;;;2.92;2.47;;;;;;;-1.91;59.41;146858.44;5063327;28;20091;-63
2023/02/16 12:15:31;;;;;;;2.38;2.17;;;;;;;-1.89;58.80;146861.00;5064399;28;20025;-64
2023/02/16 12:18:22;;;;;;;3.08;2.50;;;;;;;-1.86;58.73;146869.84;5064314;28;20020;-64
2023/02/16 12:21:03;;;;;;;3.85;3.10;;;;;;;-1.62;59.43;146928.25;5063516;28;20217;-64
2023/02/16 12:23:48;;;;;;;3.63;2.90;;;;;;;-1.69;58.22;146911.75;5062887;28;20270;-64